Time;durP1;ratioP1;P1;durP2;ratioP2;P2;SDS_P1;SDS_P2;PMS_P1;PMS_P2;Temp;Humidity;BMP_temperature;BMP_pressure;BME280_temperature;BME280_humidity;BME280_pressure;Samples;Min_cycle;Max_cycle;Signal;HPM_P1;HPM_P2
2022/09/08 00:02:20;;;;;;;0.00;0.00;;;;;;;16.52;100.00;100918.47;4997910;28;20030;-72
2022/09/08 00:04:46;;;;;;;0.00;0.00;;;;;;;16.28;100.00;100908.28;4998711;28;20037;-68
2022/09/08 00:07:11;;;;;;;0.10;0.10;;;;;;;16.08;100.00;100892.19;5003296;28;20045;-66
2022/09/08 00:09:36;;;;;;;0.00;0.00;;;;;;;15.89;100.00;100866.13;5001321;28;20040;-66
2022/09/08 00:12:03;;;;;;;0.00;0.00;;;;;;;15.95;100.00;100870.91;5003770;28;20541;-72
2022/09/08 00:14:31;;;;;;;0.00;0.00;;;;;;;15.91;100.00;100865.94;4996522;28;20037;-71
2022/09/08 00:16:56;;;;;;;0.05;0.05;;;;;;;15.81;100.00;100842.47;5000398;28;20032;-71
2022/09/08 00:19:22;;;;;;;0.03;0.03;;;;;;;16.04;100.00;100861.00;5007657;28;20029;-71
2022/09/08 00:21:47;;;;;;;0.00;0.00;;;;;;;16.10;100.00;100852.25;5003372;28;20204;-74
2022/09/08 00:24:12;;;;;;;0.00;0.00;;;;;;;16.12;100.00;100844.81;5005963;28;20064;-73
2022/09/08 00:26:38;;;;;;;0.05;0.05;;;;;;;16.18;100.00;100844.22;5009792;28;20022;-73
2022/09/08 00:29:03;;;;;;;0.00;0.00;;;;;;;16.25;100.00;100851.72;5016819;28;20678;-73
2022/09/08 00:31:28;;;;;;;0.10;0.10;;;;;;;16.17;100.00;100847.06;5006126;28;20056;-73
2022/09/08 00:33:54;;;;;;;0.00;0.00;;;;;;;16.12;100.00;100836.69;5006027;28;20152;-73
2022/09/08 00:36:19;;;;;;;0.00;0.00;;;;;;;16.08;100.00;100829.06;5002658;28;20034;-73
2022/09/08 00:38:52;;;;;;;0.00;0.00;;;;;;;16.03;100.00;100830.38;5007675;28;20037;-73
2022/09/08 00:41:19;;;;;;;0.10;0.10;;;;;;;16.01;100.00;100826.97;4999264;28;20053;-73
2022/09/08 00:43:48;;;;;;;0.00;0.00;;;;;;;15.88;100.00;100830.06;5001127;28;20295;-73
2022/09/08 00:46:29;;;;;;;0.10;0.10;;;;;;;15.79;100.00;100819.28;5005867;28;20033;-73
2022/09/08 00:48:57;;;;;;;0.08;0.08;;;;;;;15.91;100.00;100844.28;4999333;28;20065;-74
2022/09/08 00:51:23;;;;;;;0.03;0.03;;;;;;;15.90;100.00;100838.00;4999984;28;20359;-73
2022/09/08 00:53:49;;;;;;;0.03;0.03;;;;;;;15.77;100.00;100819.41;4998622;28;20030;-74
2022/09/08 00:56:15;;;;;;;0.10;0.10;;;;;;;15.88;100.00;100818.41;4999242;28;20034;-73
2022/09/08 00:58:40;;;;;;;0.20;0.10;;;;;;;16.07;100.00;100820.06;5000996;28;20044;-74
2022/09/08 01:01:07;;;;;;;0.10;0.10;;;;;;;16.14;100.00;100807.59;4999035;28;20033;-74
2022/09/08 01:03:33;;;;;;;0.05;0.05;;;;;;;16.18;100.00;100809.00;5004427;28;20131;-73
2022/09/08 01:06:09;;;;;;;0.00;0.00;;;;;;;16.24;100.00;100787.72;5003636;28;20514;-74
2022/09/08 01:14:44;;;;;;;0.10;0.10;;;;;;;15.88;100.00;100811.09;5002135;28;20028;-73
2022/09/08 01:17:23;;;;;;;0.00;0.00;;;;;;;15.79;100.00;100812.00;5006564;28;20034;-73
2022/09/08 01:19:49;;;;;;;0.10;0.10;;;;;;;15.86;100.00;100786.03;5003991;28;20452;-73
2022/09/08 01:22:48;;;;;;;0.10;0.10;;;;;;;16.05;100.00;100778.75;5007508;28;20045;-74
2022/09/08 01:25:26;;;;;;;0.00;0.00;;;;;;;16.04;100.00;100785.16;5005409;28;20450;-74
2022/09/08 01:28:15;;;;;;;0.00;0.00;;;;;;;16.04;100.00;100777.03;4997481;28;20030;-74
2022/09/08 01:30:41;;;;;;;0.00;0.00;;;;;;;16.08;100.00;100773.00;5002805;28;20487;-72
2022/09/08 01:33:08;;;;;;;0.10;0.10;;;;;;;16.09;100.00;100776.59;5017671;28;20060;-72
2022/09/08 01:35:38;;;;;;;0.00;0.00;;;;;;;16.06;100.00;100785.03;5023247;28;20069;-72
2022/09/08 01:38:04;;;;;;;0.00;0.00;;;;;;;16.06;100.00;100791.28;5019193;28;20030;-71
2022/09/08 01:40:29;;;;;;;0.00;0.00;;;;;;;16.07;100.00;100786.72;5019695;28;20044;-71
2022/09/08 01:42:55;;;;;;;0.00;0.00;;;;;;;16.16;100.00;100785.75;5003233;28;20040;-71
2022/09/08 01:45:20;;;;;;;0.00;0.00;;;;;;;16.18;100.00;100778.34;5000671;28;20030;-71
2022/09/08 01:47:45;;;;;;;0.00;0.00;;;;;;;16.25;100.00;100781.28;4998152;28;20065;-71
2022/09/08 01:50:11;;;;;;;0.00;0.00;;;;;;;16.26;100.00;100780.28;4993853;28;20391;-71
2022/09/08 01:52:36;;;;;;;0.10;0.10;;;;;;;16.21;100.00;100774.47;5001134;28;20709;-71
2022/09/08 01:55:02;;;;;;;0.00;0.00;;;;;;;16.11;100.00;100764.59;4999345;28;20022;-72
2022/09/08 01:57:27;;;;;;;0.00;0.00;;;;;;;15.91;100.00;100727.88;5005333;28;20034;-72
2022/09/08 01:59:52;;;;;;;0.10;0.10;;;;;;;16.03;100.00;100748.25;4997455;28;20030;-72
2022/09/08 02:02:18;;;;;;;0.00;0.00;;;;;;;16.00;100.00;100743.19;4995459;28;20026;-72
2022/09/08 02:04:43;;;;;;;0.10;0.10;;;;;;;15.77;100.00;100713.84;5000520;28;20057;-71
2022/09/08 02:07:09;;;;;;;0.00;0.00;;;;;;;15.82;100.00;100725.06;4997739;28;20610;-71
2022/09/08 02:09:34;;;;;;;0.00;0.00;;;;;;;15.83;100.00;100734.88;5001170;28;20121;-73
2022/09/08 02:11:59;;;;;;;0.00;0.00;;;;;;;15.81;100.00;100733.34;5001472;28;20034;-72
2022/09/08 02:14:26;;;;;;;0.03;0.03;;;;;;;15.72;100.00;100735.16;4995748;28;20029;-72
2022/09/08 02:16:51;;;;;;;0.00;0.00;;;;;;;15.73;100.00;100734.16;5001026;28;20109;-71
2022/09/08 02:19:17;;;;;;;0.00;0.00;;;;;;;15.70;100.00;100751.53;5005158;28;20231;-71
2022/09/08 02:21:42;;;;;;;0.00;0.00;;;;;;;15.70;100.00;100751.53;5005615;28;20021;-71
2022/09/08 02:24:07;;;;;;;0.00;0.00;;;;;;;15.73;100.00;100743.09;5005890;28;20034;-71
2022/09/08 02:26:33;;;;;;;0.00;0.00;;;;;;;15.86;100.00;100718.38;5008275;28;20117;-71
2022/09/08 02:28:58;;;;;;;0.10;0.10;;;;;;;15.88;100.00;100704.69;5002159;28;20034;-70
2022/09/08 02:31:25;;;;;;;0.10;0.03;;;;;;;15.91;100.00;100700.81;5011858;28;20037;-71
2022/09/08 02:33:51;;;;;;;0.03;0.03;;;;;;;15.77;100.00;100685.94;5001412;28;20018;-71
2022/09/08 02:36:17;;;;;;;0.10;0.10;;;;;;;15.91;100.00;100703.50;5002440;28;20108;-70
2022/09/08 02:38:42;;;;;;;0.00;0.00;;;;;;;15.86;100.00;100695.88;5004150;28;20046;-70
2022/09/08 02:41:08;;;;;;;0.00;0.00;;;;;;;15.81;100.00;100703.56;5001654;28;20116;-70
2022/09/08 02:43:34;;;;;;;0.00;0.00;;;;;;;15.66;100.00;100660.81;4998162;28;20034;-70
2022/09/08 02:46:06;;;;;;;0.00;0.00;;;;;;;15.89;100.00;100684.72;5002546;28;20099;-70
2022/09/08 02:48:32;;;;;;;0.00;0.00;;;;;;;15.86;100.00;100682.34;5000291;28;20357;-71
2022/09/08 02:51:03;;;;;;;0.00;0.00;;;;;;;15.90;100.00;100681.00;5004750;28;20576;-70
2022/09/08 02:53:29;;;;;;;0.00;0.00;;;;;;;15.84;100.00;100651.84;5004880;28;20028;-70
2022/09/08 02:55:55;;;;;;;0.00;0.00;;;;;;;15.86;100.00;100666.94;5005512;28;20033;-71
2022/09/08 02:58:21;;;;;;;0.00;0.00;;;;;;;15.62;100.00;100635.09;5001286;28;20049;-70
2022/09/08 03:00:46;;;;;;;0.00;0.00;;;;;;;15.86;100.00;100663.38;5003286;28;20037;-70
2022/09/08 03:03:12;;;;;;;0.00;0.00;;;;;;;15.87;100.00;100671.34;4998296;28;20033;-70
2022/09/08 03:05:37;;;;;;;0.03;0.03;;;;;;;15.79;100.00;100679.34;4993680;28;20128;-70
2022/09/08 03:08:03;;;;;;;0.10;0.10;;;;;;;15.75;100.00;100684.25;5001948;28;20339;-73
2022/09/08 03:10:29;;;;;;;0.10;0.10;;;;;;;15.76;100.00;100682.38;5005157;28;20029;-73
2022/09/08 03:12:55;;;;;;;0.10;0.10;;;;;;;15.81;100.00;100677.34;5001733;28;20364;-70
2022/09/08 03:15:23;;;;;;;0.00;0.00;;;;;;;15.74;100.00;100654.66;5013850;28;20030;-70
2022/09/08 03:17:49;;;;;;;0.10;0.10;;;;;;;15.83;100.00;100667.22;5002304;28;20030;-70
2022/09/08 03:20:15;;;;;;;0.00;0.00;;;;;;;15.83;100.00;100677.19;4999992;28;20331;-70
2022/09/08 03:22:40;;;;;;;0.00;0.00;;;;;;;15.62;100.00;100680.25;4986667;28;20038;-70
2022/09/08 03:25:06;;;;;;;0.10;0.10;;;;;;;15.62;100.00;100689.22;5005117;28;20493;-70
2022/09/08 03:27:31;;;;;;;0.10;0.10;;;;;;;15.56;100.00;100692.56;5002507;28;20036;-70
2022/09/08 03:29:57;;;;;;;0.10;0.10;;;;;;;15.37;100.00;100704.38;5000134;28;20038;-71
2022/09/08 03:32:22;;;;;;;0.00;0.00;;;;;;;15.48;100.00;100685.22;5003045;28;20026;-70
2022/09/08 03:34:47;;;;;;;0.08;0.08;;;;;;;15.66;100.00;100681.63;4996310;28;20072;-70
2022/09/08 03:37:13;;;;;;;0.00;0.00;;;;;;;15.71;100.00;100674.75;5000682;28;20061;-70
2022/09/08 03:39:39;;;;;;;0.20;0.10;;;;;;;15.79;100.00;100673.09;5002919;28;20061;-70
2022/09/08 03:42:05;;;;;;;0.03;0.03;;;;;;;15.84;100.00;100681.63;4996596;28;20034;-70
2022/09/08 03:44:32;;;;;;;0.03;0.03;;;;;;;15.79;100.00;100686.66;4985749;28;20034;-70
2022/09/08 03:46:58;;;;;;;0.00;0.00;;;;;;;15.75;100.00;100684.25;4991647;28;20052;-70
2022/09/08 03:49:23;;;;;;;0.08;0.08;;;;;;;15.66;100.00;100670.81;4999979;28;20384;-70
2022/09/08 03:51:48;;;;;;;0.00;0.00;;;;;;;15.84;100.00;100689.72;5004758;28;20071;-69
2022/09/08 03:56:57;;;;;;;0.00;0.00;;;;;;;15.83;100.00;100679.91;5001641;28;20498;-69
2022/09/08 03:59:23;;;;;;;0.10;0.10;;;;;;;15.78;100.00;100679.53;4996078;28;20030;-69
2022/09/08 04:01:49;;;;;;;0.00;0.00;;;;;;;15.79;100.00;100690.19;4998963;28;20022;-68
2022/09/08 04:04:14;;;;;;;0.00;0.00;;;;;;;15.74;100.00;100697.94;4998204;28;20119;-69
2022/09/08 04:06:39;;;;;;;0.03;0.03;;;;;;;15.70;100.00;100702.81;5002557;28;20038;-72
2022/09/08 04:09:05;;;;;;;0.08;0.08;;;;;;;15.57;100.00;100702.38;5003769;28;20037;-72
2022/09/08 04:11:31;;;;;;;0.00;0.00;;;;;;;15.53;100.00;100706.38;5001373;28;20471;-73
2022/09/08 04:13:56;;;;;;;0.00;0.00;;;;;;;15.61;100.00;100717.28;5013975;28;20025;-73
2022/09/08 04:16:21;;;;;;;0.00;0.00;;;;;;;15.43;100.00;100706.47;5000855;28;20484;-73
2022/09/08 04:18:47;;;;;;;0.00;0.00;;;;;;;15.34;100.00;100697.44;5009546;28;20057;-73
2022/09/08 04:21:12;;;;;;;0.10;0.10;;;;;;;15.37;100.00;100697.09;5002705;28;20471;-68
2022/09/08 04:23:39;;;;;;;0.10;0.10;;;;;;;15.57;100.00;100699.66;5002584;28;20112;-67
2022/09/08 04:26:09;;;;;;;0.00;0.00;;;;;;;15.62;100.00;100700.06;5011497;28;20021;-67
2022/09/08 04:28:34;;;;;;;0.10;0.10;;;;;;;15.64;100.00;100698.00;5011424;28;20124;-69
2022/09/08 04:31:05;;;;;;;0.00;0.00;;;;;;;15.62;100.00;100699.19;5009245;28;20041;-67
2022/09/08 04:33:31;;;;;;;0.00;0.00;;;;;;;15.60;100.00;100699.34;5007527;28;20876;-67
2022/09/08 04:35:56;;;;;;;0.10;0.10;;;;;;;15.53;100.00;100699.09;5014926;28;20091;-66
2022/09/08 04:38:21;;;;;;;0.10;0.10;;;;;;;15.44;100.00;100686.53;5010480;28;20331;-67
2022/09/08 04:40:47;;;;;;;0.10;0.10;;;;;;;15.55;100.00;100712.50;5006286;28;20029;-67
2022/09/08 04:43:12;;;;;;;0.08;0.08;;;;;;;15.57;100.00;100718.59;5006682;28;20057;-67
2022/09/08 04:45:37;;;;;;;0.10;0.10;;;;;;;15.55;100.00;100715.19;5011199;28;20361;-67
2022/09/08 04:48:03;;;;;;;0.00;0.00;;;;;;;15.53;100.00;100709.94;5016593;28;20041;-67
2022/09/08 04:50:28;;;;;;;0.10;0.10;;;;;;;15.47;100.00;100721.41;5013121;28;20147;-67
2022/09/08 04:52:54;;;;;;;0.08;0.08;;;;;;;15.51;100.00;100727.34;5012719;28;20037;-67
2022/09/08 04:55:19;;;;;;;0.08;0.08;;;;;;;15.35;100.00;100722.63;5003784;28;20025;-67
2022/09/08 04:57:44;;;;;;;0.03;0.03;;;;;;;15.29;100.00;100724.09;5006663;28;20160;-71
2022/09/08 05:00:12;;;;;;;0.10;0.10;;;;;;;15.28;100.00;100728.63;5006020;28;20112;-68
2022/09/08 05:02:37;;;;;;;0.10;0.10;;;;;;;15.26;100.00;100729.81;5000710;28;20056;-70
2022/09/08 05:05:03;;;;;;;0.10;0.10;;;;;;;15.25;100.00;100739.75;5007284;28;20033;-68
2022/09/08 05:07:28;;;;;;;0.08;0.08;;;;;;;15.27;100.00;100739.63;5005074;28;20033;-67
2022/09/08 05:09:54;;;;;;;0.10;0.10;;;;;;;15.25;100.00;100736.22;5009981;28;20030;-67
2022/09/08 05:12:19;;;;;;;0.03;0.03;;;;;;;14.99;100.00;100704.50;5004599;28;20036;-67
2022/09/08 05:14:44;;;;;;;0.10;0.10;;;;;;;15.19;100.00;100742.22;5007618;28;20063;-68
2022/09/08 05:17:09;;;;;;;0.10;0.10;;;;;;;15.14;100.00;100745.41;5007511;28;20545;-67
2022/09/08 05:19:35;;;;;;;0.10;0.10;;;;;;;15.17;100.00;100744.22;5006154;28;20036;-67
2022/09/08 05:22:00;;;;;;;0.10;0.10;;;;;;;15.17;100.00;100745.09;5008176;28;20038;-67
2022/09/08 05:24:25;;;;;;;0.00;0.00;;;;;;;15.27;100.00;100745.03;5003783;28;20137;-67
2022/09/08 05:26:51;;;;;;;0.10;0.10;;;;;;;15.06;100.00;100711.00;5001285;28;20175;-67
2022/09/08 05:29:16;;;;;;;0.10;0.10;;;;;;;15.17;100.00;100731.56;5007742;28;20543;-67
2022/09/08 05:31:41;;;;;;;0.10;0.10;;;;;;;15.27;100.00;100737.75;5004742;28;20064;-67
2022/09/08 05:34:08;;;;;;;0.10;0.10;;;;;;;15.16;100.00;100716.34;5006416;28;20030;-66
2022/09/08 05:36:35;;;;;;;0.00;0.00;;;;;;;15.30;100.00;100733.91;5009297;28;20388;-67
2022/09/08 05:39:01;;;;;;;0.10;0.10;;;;;;;15.29;100.00;100733.03;5009299;28;20105;-67
2022/09/08 05:41:27;;;;;;;0.10;0.10;;;;;;;15.22;100.00;100715.75;4984615;28;20422;-67
2022/09/08 05:43:54;;;;;;;0.00;0.00;;;;;;;15.33;100.00;100732.72;5010677;28;20033;-67
2022/09/08 05:46:20;;;;;;;0.00;0.00;;;;;;;15.26;100.00;100733.34;5007337;28;20400;-67
2022/09/08 05:48:46;;;;;;;0.10;0.10;;;;;;;15.30;100.00;100732.03;5012520;28;20034;-67
2022/09/08 05:51:13;;;;;;;0.00;0.00;;;;;;;15.22;100.00;100729.28;5008235;28;20329;-67
2022/09/08 05:53:38;;;;;;;0.10;0.10;;;;;;;15.21;100.00;100726.69;5008694;28;20030;-67
2022/09/08 05:56:07;;;;;;;0.10;0.10;;;;;;;15.27;100.00;100729.63;5011074;28;20029;-67
2022/09/08 05:58:33;;;;;;;0.25;0.05;;;;;;;15.20;100.00;100725.88;5009444;28;20022;-67
2022/09/08 06:01:05;;;;;;;0.00;0.00;;;;;;;15.13;100.00;100725.59;5001325;28;20079;-67
2022/09/08 06:03:30;;;;;;;0.10;0.10;;;;;;;15.00;100.00;100709.75;5014710;28;20514;-67
2022/09/08 06:05:55;;;;;;;0.10;0.10;;;;;;;15.19;100.00;100728.69;5001127;28;20129;-67
2022/09/08 06:08:22;;;;;;;0.10;0.10;;;;;;;15.23;100.00;100730.94;4999760;28;20040;-67
2022/09/08 06:10:49;;;;;;;0.13;0.13;;;;;;;15.09;100.00;100715.25;5000296;28;20416;-67
2022/09/08 06:13:14;;;;;;;0.05;0.05;;;;;;;15.14;100.00;100721.06;5001728;28;20048;-67
2022/09/08 06:15:39;;;;;;;0.03;0.03;;;;;;;15.11;100.00;100727.59;5008008;28;20033;-67
2022/09/08 06:18:05;;;;;;;0.00;0.00;;;;;;;15.10;100.00;100725.91;5001884;28;20465;-67
2022/09/08 06:20:30;;;;;;;0.00;0.00;;;;;;;15.03;100.00;100726.66;5005168;28;20041;-67
2022/09/08 06:22:55;;;;;;;0.00;0.00;;;;;;;15.02;100.00;100725.84;4998198;28;20030;-68
2022/09/08 06:25:21;;;;;;;0.00;0.00;;;;;;;15.12;100.00;100723.06;5001837;28;20058;-68
2022/09/08 06:27:55;;;;;;;0.10;0.10;;;;;;;15.19;100.00;100716.06;5004711;28;20033;-68
2022/09/08 06:30:21;;;;;;;0.10;0.10;;;;;;;15.19;100.00;100723.28;4997877;28;20065;-67
2022/09/08 06:32:53;;;;;;;0.10;0.10;;;;;;;15.17;100.00;100723.47;4999524;28;20053;-67
2022/09/08 06:35:27;;;;;;;0.00;0.00;;;;;;;15.22;100.00;100723.84;5005286;28;20030;-68
2022/09/08 06:37:57;;;;;;;0.00;0.00;;;;;;;15.21;100.00;100727.56;5005986;28;20037;-67
2022/09/08 06:40:22;;;;;;;0.03;0.03;;;;;;;15.26;100.00;100717.13;5002032;28;20026;-67
2022/09/08 06:43:11;;;;;;;0.00;0.00;;;;;;;15.22;100.00;100729.28;5004124;28;20033;-68
2022/09/08 06:45:40;;;;;;;0.00;0.00;;;;;;;15.24;100.00;100729.09;4999151;28;20291;-68
2022/09/08 06:48:15;;;;;;;0.00;0.00;;;;;;;15.28;100.00;100731.34;5014943;28;20534;-68
2022/09/08 06:51:14;;;;;;;0.10;0.10;;;;;;;15.34;100.00;100737.16;4998685;28;20046;-67
2022/09/08 06:53:45;;;;;;;0.10;0.10;;;;;;;15.31;100.00;100730.19;4996979;28;20064;-68
2022/09/08 06:56:44;;;;;;;0.00;0.00;;;;;;;15.35;100.00;100739.72;5003314;28;20030;-67
2022/09/08 06:59:21;;;;;;;0.00;0.00;;;;;;;15.43;100.00;100733.53;5001511;28;20893;-68
2022/09/08 07:02:07;;;;;;;0.03;0.03;;;;;;;15.43;100.00;100728.13;5014969;28;20037;-70
2022/09/08 07:04:51;;;;;;;0.08;0.08;;;;;;;15.51;100.00;100725.47;5012382;28;20025;-67
2022/09/08 07:07:26;;;;;;;0.03;0.03;;;;;;;15.51;100.00;100728.16;4994174;28;20401;-67
2022/09/08 07:10:08;;;;;;;0.10;0.10;;;;;;;15.53;100.00;100736.16;4977461;28;20076;-68
2022/09/08 07:12:47;;;;;;;0.10;0.10;;;;;;;15.52;100.00;100739.88;4997079;28;20538;-70
2022/09/08 07:15:12;;;;;;;0.00;0.00;;;;;;;15.58;100.00;100731.97;5002346;28;20038;-69
2022/09/08 07:17:49;;;;;;;0.10;0.10;;;;;;;15.52;100.00;100729.03;4996010;28;20052;-68
2022/09/08 07:20:15;;;;;;;0.00;0.00;;;;;;;15.60;100.00;100732.66;4997912;28;20271;-68
2022/09/08 07:23:09;;;;;;;0.05;0.05;;;;;;;15.59;100.00;100743.66;4998048;28;20108;-68
2022/09/08 07:25:43;;;;;;;0.00;0.00;;;;;;;15.57;100.00;100751.91;4996348;28;20635;-68
2022/09/08 07:28:12;;;;;;;;;;;;;;;15.54;100.00;100754.94;5000470;28;20026;-68
2022/09/08 07:30:38;;;;;;;0.10;0.10;;;;;;;15.65;100.00;100751.13;4996506;28;20370;-68
2022/09/08 07:33:13;;;;;;;0.10;0.10;;;;;;;15.74;100.00;100750.22;5001128;28;20034;-68
2022/09/08 07:35:54;;;;;;;0.00;0.00;;;;;;;15.79;100.00;100747.03;5011422;28;20021;-67
2022/09/08 07:38:41;;;;;;;0.08;0.08;;;;;;;15.81;100.00;100746.88;4998562;28;20034;-69
2022/09/08 07:41:10;;;;;;;0.03;0.03;;;;;;;15.98;100.00;100753.31;5002129;28;20065;-70
2022/09/08 07:43:35;;;;;;;0.10;0.10;;;;;;;15.96;100.00;100748.03;4997195;28;20061;-71
2022/09/08 07:46:03;;;;;;;0.10;0.10;;;;;;;16.03;100.00;100745.56;5001544;28;20033;-70
2022/09/08 07:48:55;;;;;;;0.00;0.00;;;;;;;16.17;100.00;100745.00;4994669;28;20021;-73
2022/09/08 07:51:21;;;;;;;0.00;0.00;;;;;;;16.22;100.00;100749.09;4996646;28;20033;-72
2022/09/08 07:53:58;;;;;;;0.10;0.10;;;;;;;16.08;100.00;100743.22;4999014;28;20029;-76
2022/09/08 07:56:43;;;;;;;0.10;0.10;;;;;;;16.00;100.00;100727.78;4990867;28;20029;-73
2022/09/08 07:59:35;;;;;;;0.10;0.10;;;;;;;16.15;100.00;100751.59;4999062;28;20526;-72
2022/09/08 08:02:12;;;;;;;0.00;0.00;;;;;;;16.17;100.00;100752.25;4997166;28;20033;-72
2022/09/08 08:05:03;;;;;;;0.10;0.10;;;;;;;16.22;100.00;100755.34;5002608;28;20068;-73
2022/09/08 08:07:53;;;;;;;0.10;0.10;;;;;;;16.26;100.00;100754.03;4997688;28;20032;-73
2022/09/08 08:10:26;;;;;;;0.10;0.10;;;;;;;16.27;100.00;100761.13;5006930;28;20033;-70
2022/09/08 08:13:16;;;;;;;0.05;0.05;;;;;;;16.31;100.00;100746.28;4997835;28;20358;-71
2022/09/08 08:15:52;;;;;;;0.05;0.05;;;;;;;16.46;100.00;100759.22;4993266;28;20028;-71
2022/09/08 08:18:34;;;;;;;0.10;0.10;;;;;;;16.63;100.00;100755.59;5003342;28;20125;-74
2022/09/08 08:21:42;;;;;;;0.10;0.10;;;;;;;16.61;100.00;100754.91;4996025;28;20038;-72
2022/09/08 08:24:20;;;;;;;0.10;0.10;;;;;;;16.56;100.00;100750.97;4996092;28;20033;-71
2022/09/08 08:26:50;;;;;;;0.00;0.00;;;;;;;16.70;100.00;100758.50;4993306;28;20504;-72
2022/09/08 08:29:26;;;;;;;0.10;0.10;;;;;;;16.68;100.00;100746.16;4995851;28;20072;-72
2022/09/08 08:31:58;;;;;;;0.00;0.00;;;;;;;16.89;100.00;100753.84;4993319;28;20128;-69
2022/09/08 08:34:27;;;;;;;0.00;0.00;;;;;;;16.83;100.00;100758.06;4997292;28;20330;-72
2022/09/08 08:36:56;;;;;;;0.00;0.00;;;;;;;16.89;100.00;100767.41;4994564;28;20041;-73
2022/09/08 08:39:22;;;;;;;0.00;0.00;;;;;;;16.71;100.00;100772.91;4996002;28;20033;-75
2022/09/08 08:42:15;;;;;;;0.00;0.00;;;;;;;16.75;100.00;100768.88;4992863;28;20037;-72
2022/09/08 08:45:02;;;;;;;0.10;0.10;;;;;;;16.72;100.00;100771.91;4997148;28;20080;-72
2022/09/08 08:47:40;;;;;;;0.00;0.00;;;;;;;16.75;100.00;100744.47;4995715;28;20048;-72
2022/09/08 08:50:28;;;;;;;0.10;0.10;;;;;;;17.17;100.00;100762.63;4993486;28;20048;-73
2022/09/08 08:53:22;;;;;;;0.00;0.00;;;;;;;17.12;100.00;100765.00;5006705;28;20025;-72
2022/09/08 08:56:03;;;;;;;0.10;0.10;;;;;;;16.91;100.00;100757.25;5000568;28;20105;-77
2022/09/08 08:58:37;;;;;;;0.03;0.03;;;;;;;17.22;100.00;100771.09;4994755;28;20026;-73
2022/09/08 09:01:26;;;;;;;0.00;0.00;;;;;;;16.93;100.00;100752.50;4994752;28;20045;-77
2022/09/08 09:04:14;;;;;;;0.10;0.10;;;;;;;16.82;100.00;100767.22;4997419;28;20428;-69
2022/09/08 09:07:16;;;;;;;0.10;0.10;;;;;;;17.01;100.00;100781.56;4992265;28;20048;-73
2022/09/08 09:10:30;;;;;;;0.00;0.00;;;;;;;17.00;100.00;100787.97;4995092;28;20105;-77
2022/09/08 09:13:05;;;;;;;0.00;0.00;;;;;;;17.37;100.00;100765.88;4989962;28;21448;-73
2022/09/08 09:16:04;;;;;;;0.10;0.10;;;;;;;17.58;100.00;100763.72;4997045;28;20023;-73
2022/09/08 09:19:07;;;;;;;0.00;0.00;;;;;;;18.19;100.00;100777.84;5002727;28;20038;-71
2022/09/08 09:21:49;;;;;;;0.10;0.10;;;;;;;18.27;100.00;100787.91;4989310;28;20035;-74
2022/09/08 09:24:39;;;;;;;0.00;0.00;;;;;;;18.33;100.00;100784.47;4993234;28;20414;-73
2022/09/08 09:27:34;;;;;;;0.00;0.00;;;;;;;18.48;100.00;100786.50;4994389;28;20040;-77
2022/09/08 09:30:22;;;;;;;0.00;0.00;;;;;;;18.22;96.03;100787.56;4993734;28;20564;-73
2022/09/08 09:33:20;;;;;;;0.00;0.00;;;;;;;18.33;97.40;100776.31;4993417;28;20041;-72
2022/09/08 09:36:04;;;;;;;0.00;0.00;;;;;;;18.70;97.39;100783.03;4995519;28;20504;-71
2022/09/08 09:39:07;;;;;;;0.00;0.00;;;;;;;18.77;88.93;100787.78;5001272;28;20484;-72
2022/09/08 09:41:42;;;;;;;0.00;0.00;;;;;;;18.71;91.88;100776.56;4992746;28;20476;-74
2022/09/08 09:44:30;;;;;;;0.00;0.00;;;;;;;18.94;92.12;100774.94;5000113;28;20057;-78
2022/09/08 09:47:08;;;;;;;0.00;0.00;;;;;;;18.84;89.98;100775.16;5000609;28;20041;-76
2022/09/08 09:49:48;;;;;;;0.00;0.00;;;;;;;19.37;91.36;100771.88;4999654;28;20504;-74
2022/09/08 09:52:21;;;;;;;0.00;0.00;;;;;;;19.64;88.39;100768.63;4997182;28;20042;-73
2022/09/08 09:54:53;;;;;;;0.00;0.00;;;;;;;19.24;85.08;100775.19;5000865;28;20030;-72
2022/09/08 09:57:41;;;;;;;0.00;0.00;;;;;;;18.87;86.76;100774.81;4996490;28;20038;-70
2022/09/08 10:00:14;;;;;;;0.00;0.00;;;;;;;18.98;88.85;100776.31;4992910;28;20034;-76
2022/09/08 10:02:56;;;;;;;0.00;0.00;;;;;;;18.92;89.77;100777.03;4998473;28;20026;-76
2022/09/08 10:05:51;;;;;;;0.00;0.00;;;;;;;19.02;88.44;100780.41;4993225;28;20033;-76
2022/09/08 10:08:54;;;;;;;0.20;0.00;;;;;;;18.84;89.03;100777.88;4993192;28;20030;-75
2022/09/08 10:11:55;;;;;;;0.00;0.00;;;;;;;18.39;91.03;100786.50;4993717;28;20018;-74
2022/09/08 10:14:23;;;;;;;0.00;0.00;;;;;;;18.51;90.43;100784.28;4989384;28;20041;-74
2022/09/08 10:17:13;;;;;;;0.00;0.00;;;;;;;18.95;92.33;100774.81;4996039;28;20030;-77
2022/09/08 10:19:41;;;;;;;0.00;0.00;;;;;;;19.15;88.13;100777.97;5007063;28;20045;-76
2022/09/08 10:22:44;;;;;;;0.00;0.00;;;;;;;19.40;87.81;100774.25;5000318;28;20030;-74
2022/09/08 10:25:31;;;;;;;0.10;0.10;;;;;;;19.88;83.63;100768.66;4995303;28;20422;-71
2022/09/08 10:28:24;;;;;;;0.00;0.00;;;;;;;19.65;82.66;100772.22;4996361;28;20483;-74
2022/09/08 10:30:56;;;;;;;0.00;0.00;;;;;;;19.34;81.68;100776.66;5004629;28;20072;-74
2022/09/08 10:33:37;;;;;;;0.00;0.00;;;;;;;19.86;82.19;100771.56;4992811;28;20034;-76
2022/09/08 10:36:06;;;;;;;0.00;0.00;;;;;;;20.16;82.72;100768.91;4994356;28;20026;-73
2022/09/08 10:38:46;;;;;;;0.00;0.00;;;;;;;20.34;82.41;100748.66;4992972;28;20044;-73
2022/09/08 10:41:40;;;;;;;0.00;0.00;;;;;;;20.89;78.06;100768.34;4997826;28;20061;-78
2022/09/08 10:44:24;;;;;;;0.00;0.00;;;;;;;21.47;79.93;100758.50;5000069;28;20706;-80
2022/09/08 10:46:58;;;;;;;0.00;0.00;;;;;;;21.51;75.95;100757.09;4998813;28;20041;-78
2022/09/08 10:49:44;;;;;;;0.00;0.00;;;;;;;21.96;73.41;100751.47;4999553;28;20037;-73
2022/09/08 10:52:31;;;;;;;0.00;0.00;;;;;;;22.20;72.48;100761.13;4998375;28;20028;-73
2022/09/08 10:55:27;;;;;;;0.00;0.00;;;;;;;22.03;67.63;100755.94;5000896;28;20113;-73
2022/09/08 10:58:23;;;;;;;0.05;0.05;;;;;;;21.47;69.53;100764.84;5002412;28;20124;-78
2022/09/08 11:01:16;;;;;;;0.00;0.00;;;;;;;21.68;72.20;100755.00;4996781;28;20030;-72
2022/09/08 11:03:47;;;;;;;0.00;0.00;;;;;;;22.08;71.86;100766.28;4996163;28;20030;-67
2022/09/08 11:06:30;;;;;;;0.00;0.00;;;;;;;22.00;68.61;100756.31;4997098;28;20061;-70
2022/09/08 11:09:09;;;;;;;0.00;0.00;;;;;;;22.65;68.60;100760.81;5000454;28;20053;-74
2022/09/08 11:11:59;;;;;;;0.00;0.00;;;;;;;22.45;65.80;100763.44;5000795;28;20424;-69
2022/09/08 11:14:51;;;;;;;0.00;0.00;;;;;;;22.75;65.59;100744.03;4992253;28;20068;-72
2022/09/08 11:17:26;;;;;;;0.00;0.00;;;;;;;23.27;65.19;100757.34;4993733;28;20053;-69
2022/09/08 11:20:04;;;;;;;0.00;0.00;;;;;;;24.09;61.99;100752.63;4998681;28;20408;-71
2022/09/08 11:22:48;;;;;;;0.00;0.00;;;;;;;24.46;60.05;100756.78;5019349;28;20486;-74
2022/09/08 11:25:38;;;;;;;0.00;0.00;;;;;;;24.22;57.08;100757.28;4993241;28;20030;-74
2022/09/08 11:28:14;;;;;;;0.00;0.00;;;;;;;23.33;59.71;100751.00;5000825;28;20860;-73
2022/09/08 11:31:13;;;;;;;0.00;0.00;;;;;;;22.00;63.77;100756.31;4995415;28;20030;-67
2022/09/08 11:34:05;;;;;;;0.00;0.00;;;;;;;22.10;67.92;100750.53;5000075;28;20034;-69
2022/09/08 11:37:01;;;;;;;0.00;0.00;;;;;;;22.43;63.91;100758.16;4995752;28;20029;-68
2022/09/08 11:39:38;;;;;;;0.00;0.00;;;;;;;23.35;59.94;100741.56;5000441;28;20030;-69
2022/09/08 11:42:09;;;;;;;0.00;0.00;;;;;;;23.27;60.68;100747.22;4995548;28;20077;-72
2022/09/08 11:44:41;;;;;;;0.00;0.00;;;;;;;22.52;60.79;100733.38;5003006;28;20045;-70
2022/09/08 11:47:10;;;;;;;0.08;0.08;;;;;;;23.27;60.29;100758.16;5004899;28;20034;-72
2022/09/08 11:49:44;;;;;;;0.00;0.00;;;;;;;23.61;57.36;100750.88;5003737;28;20029;-71
2022/09/08 11:52:48;;;;;;;0.00;0.00;;;;;;;23.93;53.94;100751.13;5004242;28;20029;-71
2022/09/08 11:55:24;;;;;;;0.00;0.00;;;;;;;23.38;56.81;100731.25;4996374;28;20156;-77
2022/09/08 11:57:57;;;;;;;0.00;0.00;;;;;;;23.37;57.44;100735.84;4996130;28;20117;-72